createdAt,value
2023-11-25T00:00:37.296Z,96195.53
2023-11-25T00:02:14.920Z,96190.27
2023-11-25T00:03:48.609Z,96199.55
2023-11-25T00:05:20.902Z,96202.41
2023-11-25T00:06:50.598Z,96204.36
2023-11-25T00:08:27.515Z,96205.87
2023-11-25T00:09:49.599Z,96204.33
2023-11-25T00:11:28.212Z,96208.76
2023-11-25T00:12:57.389Z,96201.56
2023-11-25T00:14:21.397Z,96205.66
2023-11-25T00:15:57.576Z,96204.93
2023-11-25T00:17:32.498Z,96201.73
2023-11-25T00:18:54.384Z,96206.30
2023-11-25T00:20:35.399Z,96208.11
2023-11-25T00:21:59.434Z,96210.89
2023-11-25T00:23:23.919Z,96214.23
2023-11-25T00:24:48.771Z,96219.39
2023-11-25T00:26:13.476Z,96218.98
2023-11-25T00:27:39.169Z,96220.08
2023-11-25T00:29:05.798Z,96217.80
2023-11-25T00:30:40.125Z,96213.34
2023-11-25T00:32:04.000Z,96211.23
2023-11-25T00:33:29.463Z,96211.74
2023-11-25T00:34:51.553Z,96215.04
2023-11-25T00:36:15.907Z,96209.91
2023-11-25T00:37:37.804Z,96218.11
2023-11-25T00:39:10.386Z,96216.05
2023-11-25T00:40:33.097Z,96211.59
2023-11-25T00:41:56.838Z,96217.65
2023-11-25T00:43:18.991Z,96214.33
2023-11-25T00:44:50.389Z,96219.24
2023-11-25T00:46:12.622Z,96213.54
2023-11-25T00:47:45.335Z,96218.98
2023-11-25T00:49:09.890Z,96218.73
2023-11-25T00:50:43.612Z,96215.63
2023-11-25T00:52:07.813Z,96217.17
2023-11-25T00:53:32.391Z,96217.48
2023-11-25T00:54:56.514Z,96210.00
2023-11-25T00:56:26.371Z,96211.43
2023-11-25T00:57:50.651Z,96213.34
2023-11-25T00:59:26.525Z,96216.86
2023-11-25T01:00:48.915Z,96217.45
2023-11-25T01:02:15.564Z,96200.76
2023-11-25T01:03:39.813Z,96220.42
2023-11-25T01:05:02.049Z,96225.19
2023-11-25T01:06:24.223Z,96227.96
2023-11-25T01:07:46.355Z,96224.77
2023-11-25T01:09:09.118Z,96224.16
2023-11-25T01:10:41.394Z,96211.89
2023-11-25T01:12:17.110Z,96214.31
2023-11-25T01:13:41.531Z,96221.12
2023-11-25T01:15:05.886Z,96224.37
2023-11-25T01:16:38.464Z,96221.92
2023-11-25T01:18:00.495Z,96229.19
2023-11-25T01:19:24.878Z,96236.20
2023-11-25T01:20:48.932Z,96238.85
2023-11-25T01:22:13.087Z,96236.23
2023-11-25T01:23:35.078Z,96235.54
2023-11-25T01:24:57.463Z,96232.33
2023-11-25T01:26:19.371Z,96236.13
2023-11-25T01:27:53.334Z,96233.77
2023-11-25T01:29:19.751Z,96236.80
2023-11-25T01:30:42.066Z,96240.30
2023-11-25T01:32:07.002Z,96243.34
2023-11-25T01:33:38.575Z,96235.76
2023-11-25T01:35:13.258Z,96249.81
2023-11-25T01:36:38.510Z,96250.36
2023-11-25T01:38:11.534Z,96244.38
2023-11-25T01:39:33.726Z,96240.09
2023-11-25T01:40:57.537Z,96255.34
2023-11-25T01:42:29.264Z,96256.90
2023-11-25T01:43:51.593Z,96258.44
2023-11-25T01:45:27.436Z,96262.78
2023-11-25T01:47:00.780Z,96265.77
2023-11-25T01:48:32.726Z,96261.14
2023-11-25T01:49:54.293Z,96268.55
2023-11-25T01:51:16.160Z,96268.23
2023-11-25T01:52:54.332Z,96261.54
2023-11-25T01:54:16.615Z,96270.21
2023-11-25T01:55:50.172Z,96276.55
2023-11-25T01:57:14.555Z,96278.91
2023-11-25T01:58:36.932Z,96283.98
2023-11-25T02:00:01.247Z,96283.05
2023-11-25T02:01:25.526Z,96282.83
2023-11-25T02:02:50.639Z,96293.73
2023-11-25T02:04:12.785Z,96295.09
2023-11-25T02:05:44.592Z,96296.76
2023-11-25T02:07:16.098Z,96292.48
2023-11-25T02:08:46.005Z,96293.35
2023-11-25T02:10:08.116Z,96296.81
2023-11-25T02:11:30.697Z,96302.62
2023-11-25T02:12:56.932Z,96300.40
2023-11-25T02:14:21.117Z,96307.02
2023-11-25T02:15:43.075Z,96307.25
2023-11-25T02:17:05.869Z,96301.94
2023-11-25T02:18:30.725Z,96297.86
2023-11-25T02:19:55.161Z,96303.86
2023-11-25T02:21:24.321Z,96310.09
2023-11-25T02:22:51.023Z,96314.21
2023-11-25T02:24:13.463Z,96316.10
2023-11-25T02:25:35.276Z,96317.09
2023-11-25T02:26:58.205Z,96313.98
2023-11-25T02:28:27.981Z,96312.26
2023-11-25T02:29:50.896Z,96309.05
2023-11-25T02:31:13.182Z,96315.36
2023-11-25T02:32:35.700Z,96318.73
2023-11-25T02:33:57.485Z,96311.73
2023-11-25T02:35:28.725Z,96323.19
2023-11-25T02:37:03.178Z,96330.45
2023-11-25T02:38:25.686Z,96331.60
2023-11-25T02:39:47.442Z,96330.65
2023-11-25T02:41:16.402Z,96332.03
2023-11-25T02:42:38.931Z,96337.00
2023-11-25T02:44:05.182Z,96332.27
2023-11-25T02:45:38.756Z,96336.28
2023-11-25T02:47:03.638Z,96340.21
2023-11-25T02:48:26.463Z,96342.66
2023-11-25T02:49:50.536Z,96348.30
2023-11-25T02:51:12.795Z,96351.84
2023-11-25T02:52:46.431Z,96352.63
2023-11-25T02:54:10.659Z,96356.24
2023-11-25T02:55:35.103Z,96360.51
2023-11-25T02:56:56.704Z,96359.48
2023-11-25T02:58:20.660Z,96357.17
2023-11-25T02:59:43.818Z,96358.48
2023-11-25T03:01:10.163Z,96357.13
2023-11-25T03:02:32.570Z,96357.96
2023-11-25T03:04:06.304Z,96356.52
2023-11-25T03:05:38.405Z,96357.42
2023-11-25T03:07:05.695Z,96358.28
2023-11-25T03:08:35.144Z,96347.02
2023-11-25T03:09:59.171Z,96364.55
2023-11-25T03:11:22.134Z,96366.02
2023-11-25T03:12:50.134Z,96367.52
2023-11-25T03:14:13.032Z,96370.91
2023-11-25T03:15:45.104Z,96372.52
2023-11-25T03:17:06.540Z,96374.63
2023-11-25T03:18:30.447Z,96371.28
2023-11-25T03:19:52.516Z,96380.64
2023-11-25T03:21:14.801Z,96374.98
2023-11-25T03:22:48.432Z,96381.83
2023-11-25T03:24:15.090Z,96391.45
2023-11-25T03:25:40.121Z,96389.02
2023-11-25T03:27:03.381Z,96393.61
2023-11-25T03:28:26.502Z,96390.52
2023-11-25T03:29:51.210Z,96395.20
2023-11-25T03:31:13.501Z,96394.58
2023-11-25T03:32:36.185Z,96397.30
2023-11-25T03:33:58.217Z,96402.77
2023-11-25T03:35:20.071Z,96390.50
2023-11-25T03:36:44.310Z,96404.91
2023-11-25T03:38:09.999Z,96403.84
2023-11-25T03:39:32.286Z,96406.59
2023-11-25T03:41:02.561Z,96407.83
2023-11-25T03:42:26.744Z,96404.27
2023-11-25T03:44:02.298Z,96407.94
2023-11-25T03:45:24.533Z,96409.69
2023-11-25T03:46:46.999Z,96413.66
2023-11-25T03:48:16.669Z,96391.83
2023-11-25T03:49:38.947Z,96411.82
2023-11-25T03:51:00.539Z,96411.83
2023-11-25T03:52:23.071Z,96412.25
2023-11-25T03:53:46.409Z,96405.80
2023-11-25T03:55:08.340Z,96418.03
2023-11-25T03:56:31.074Z,96423.39
2023-11-25T03:57:52.884Z,96422.17
2023-11-25T03:59:14.770Z,96422.95
2023-11-25T04:00:48.542Z,96425.50
2023-11-25T04:02:10.520Z,96428.52
2023-11-25T04:03:35.707Z,96426.97
2023-11-25T04:04:58.006Z,96429.00
2023-11-25T04:06:20.211Z,96433.48
2023-11-25T04:07:42.793Z,96436.12
2023-11-25T04:09:06.696Z,96437.80
2023-11-25T04:10:29.128Z,96424.10
2023-11-25T04:12:07.554Z,96427.57
2023-11-25T04:13:30.475Z,96428.66
2023-11-25T04:14:52.404Z,96440.65
2023-11-25T04:16:14.470Z,96444.35
2023-11-25T04:17:39.896Z,96449.73
2023-11-25T04:19:09.332Z,96449.89
2023-11-25T04:20:34.619Z,96452.19
2023-11-25T04:22:01.044Z,96450.38
2023-11-25T04:23:33.242Z,96460.38
2023-11-25T04:24:55.206Z,96460.47
2023-11-25T04:26:17.101Z,96461.47
2023-11-25T04:27:48.005Z,96459.73
2023-11-25T04:29:10.281Z,96460.55
2023-11-25T04:30:40.043Z,96462.84
2023-11-25T04:32:04.313Z,96467.85
2023-11-25T04:33:26.428Z,96465.30
2023-11-25T04:34:50.496Z,96466.97
2023-11-25T04:36:13.896Z,96471.33
2023-11-25T04:37:36.912Z,96475.38
2023-11-25T04:39:00.290Z,96476.49
2023-11-25T04:40:22.128Z,96478.54
2023-11-25T04:41:44.080Z,96480.11
2023-11-25T04:43:13.060Z,96479.34
2023-11-25T04:44:35.279Z,96481.11
2023-11-25T04:46:04.350Z,96483.13
2023-11-25T04:47:27.919Z,96486.70
2023-11-25T04:48:50.146Z,96491.36
2023-11-25T04:50:13.314Z,96489.65
2023-11-25T04:51:37.689Z,96491.77
2023-11-25T04:53:00.912Z,96492.28
2023-11-25T04:54:25.340Z,96497.15
2023-11-25T04:55:49.666Z,96494.98
2023-11-25T04:57:12.469Z,96499.35
2023-11-25T04:58:36.988Z,96498.42
2023-11-25T05:00:00.890Z,96496.11
2023-11-25T05:01:23.065Z,96495.98
2023-11-25T05:02:45.676Z,96501.60
2023-11-25T05:04:08.630Z,96501.27
2023-11-25T05:05:33.565Z,96497.30
2023-11-25T05:06:55.768Z,96503.41
2023-11-25T05:08:32.116Z,96499.27
2023-11-25T05:10:03.619Z,96503.52
2023-11-25T05:11:27.765Z,96507.77
2023-11-25T05:12:56.724Z,96511.24
2023-11-25T05:14:18.834Z,96512.10
2023-11-25T05:15:48.541Z,96513.69
2023-11-25T05:17:18.068Z,96513.29
2023-11-25T05:18:40.167Z,96516.98
2023-11-25T05:20:10.400Z,96524.75
2023-11-25T05:21:33.188Z,96530.44
2023-11-25T05:23:08.915Z,96531.13
2023-11-25T05:24:31.531Z,96532.19
2023-11-25T05:25:56.024Z,96538.79
2023-11-25T05:27:27.488Z,96540.90
2023-11-25T05:29:00.881Z,96539.84
2023-11-25T05:30:30.420Z,96548.26
2023-11-25T05:31:52.179Z,96535.50
2023-11-25T05:33:16.724Z,96540.39
2023-11-25T05:34:40.834Z,96550.48
2023-11-25T05:36:17.565Z,96549.90
2023-11-25T05:37:41.965Z,96549.27
2023-11-25T05:39:07.892Z,96561.19
2023-11-25T05:40:31.586Z,96553.55
2023-11-25T05:41:53.220Z,96565.82
2023-11-25T05:43:17.728Z,96570.51
2023-11-25T05:44:42.384Z,96564.45
2023-11-25T05:46:07.164Z,96569.92
2023-11-25T05:47:29.576Z,96564.54
2023-11-25T05:48:51.405Z,96575.91
2023-11-25T05:50:21.876Z,96566.80
2023-11-25T05:51:58.210Z,96581.38
2023-11-25T05:53:21.974Z,96580.54
2023-11-25T05:54:58.677Z,96587.41
2023-11-25T05:56:26.735Z,96587.17
2023-11-25T05:57:51.265Z,96584.95
2023-11-25T05:59:15.876Z,96590.61
2023-11-25T06:00:41.114Z,96578.48
2023-11-25T06:02:14.954Z,96591.40
2023-11-25T06:03:44.507Z,96596.52
2023-11-25T06:05:06.389Z,96601.33
2023-11-25T06:06:28.996Z,96597.03
2023-11-25T06:07:51.440Z,96606.54
2023-11-25T06:09:20.558Z,96603.56
2023-11-25T06:10:55.313Z,96590.45
2023-11-25T06:12:29.628Z,96605.15
2023-11-25T06:13:51.635Z,96607.23
2023-11-25T06:15:16.796Z,96607.08
2023-11-25T06:16:42.863Z,96613.27
2023-11-25T06:18:04.989Z,96613.16
2023-11-25T06:19:34.564Z,96617.85
2023-11-25T06:20:56.356Z,96623.31
2023-11-25T06:22:30.060Z,96617.69
2023-11-25T06:23:52.052Z,96623.97
2023-11-25T06:25:15.144Z,96623.27
2023-11-25T06:26:51.192Z,96628.05
2023-11-25T06:28:15.453Z,96630.27
2023-11-25T06:29:40.805Z,96632.98
2023-11-25T06:31:05.427Z,96637.64
2023-11-25T06:32:30.453Z,96636.80
2023-11-25T06:33:53.084Z,96642.27
2023-11-25T06:35:17.326Z,96644.83
2023-11-25T06:36:39.282Z,96646.21
2023-11-25T06:38:13.034Z,96641.50
2023-11-25T06:39:38.010Z,96646.58
2023-11-25T06:40:59.669Z,96648.52
2023-11-25T06:42:23.380Z,96649.84
2023-11-25T06:43:57.087Z,96652.38
2023-11-25T06:45:31.068Z,96654.96
2023-11-25T06:46:53.301Z,96654.34
2023-11-25T06:48:17.201Z,96661.77
2023-11-25T06:49:46.291Z,96663.50
2023-11-25T06:51:08.141Z,96666.08
2023-11-25T06:52:30.473Z,96670.08
2023-11-25T06:54:06.919Z,96671.77
2023-11-25T06:55:29.437Z,96668.11
2023-11-25T06:56:53.464Z,96675.89
2023-11-25T06:58:15.570Z,96679.38
2023-11-25T06:59:40.317Z,96683.35
2023-11-25T07:01:05.788Z,96681.19
2023-11-25T07:02:52.554Z,96676.63
2023-11-25T07:04:20.077Z,96672.17
2023-11-25T07:05:43.049Z,96672.42
2023-11-25T07:07:04.892Z,96674.70
2023-11-25T07:08:34.170Z,96678.84
2023-11-25T07:10:15.698Z,96681.44
2023-11-25T07:12:04.167Z,96683.86
2023-11-25T07:13:29.400Z,96679.77
2023-11-25T07:14:53.940Z,96681.05
2023-11-25T07:16:35.088Z,96684.41
2023-11-25T07:17:57.242Z,96694.25
2023-11-25T07:19:20.372Z,96694.30
2023-11-25T07:20:51.374Z,96696.45
2023-11-25T07:22:33.497Z,96696.16
2023-11-25T07:23:57.496Z,96698.39
2023-11-25T07:25:21.782Z,96693.73
2023-11-25T07:26:55.739Z,96701.78
2023-11-25T07:28:17.886Z,96699.23
2023-11-25T07:29:59.097Z,96707.02
2023-11-25T07:31:21.099Z,96706.20
2023-11-25T07:32:55.059Z,96713.59
2023-11-25T07:34:17.287Z,96711.61
2023-11-25T07:35:39.893Z,96713.40
2023-11-25T07:37:03.818Z,96717.90
2023-11-25T07:38:26.307Z,96716.50
2023-11-25T07:39:55.870Z,96716.30
2023-11-25T07:41:20.893Z,96718.09
2023-11-25T07:42:58.671Z,96711.10
2023-11-25T07:44:32.218Z,96713.14
2023-11-25T07:45:56.520Z,96714.61
2023-11-25T07:47:18.581Z,96718.31
2023-11-25T07:48:43.072Z,96718.86
2023-11-25T07:50:04.902Z,96722.40
2023-11-25T07:51:27.396Z,96716.57
2023-11-25T07:52:49.320Z,96715.58
2023-11-25T07:54:11.319Z,96719.19
2023-11-25T07:55:45.141Z,96717.67
2023-11-25T07:57:20.392Z,96721.98
2023-11-25T07:58:42.726Z,96720.98
2023-11-25T08:00:08.092Z,96721.40
2023-11-25T08:01:37.432Z,96724.35
2023-11-25T08:02:59.978Z,96727.85
2023-11-25T08:04:26.397Z,96725.55
2023-11-25T08:05:50.731Z,96728.33
2023-11-25T08:07:19.726Z,96729.06
2023-11-25T08:08:53.258Z,96734.35
2023-11-25T08:10:22.812Z,96735.05
2023-11-25T08:11:56.709Z,96740.15
2023-11-25T08:13:30.612Z,96740.44
2023-11-25T08:14:54.673Z,96752.30
2023-11-25T08:16:16.671Z,96750.06
2023-11-25T08:17:40.944Z,96753.83
2023-11-25T08:19:02.812Z,96756.73
2023-11-25T08:20:25.626Z,96758.39
2023-11-25T08:21:47.562Z,96764.01
2023-11-25T08:23:11.526Z,96768.86
2023-11-25T08:24:41.437Z,96772.48
2023-11-25T08:26:03.080Z,96771.98
2023-11-25T08:27:40.129Z,96769.21
2023-11-25T08:29:04.203Z,96773.70
2023-11-25T08:30:26.359Z,96774.80
2023-11-25T08:31:59.718Z,96771.58
2023-11-25T08:33:22.160Z,96774.56
2023-11-25T08:34:55.640Z,96776.21
2023-11-25T08:36:19.299Z,96776.08
2023-11-25T08:37:45.968Z,96780.12
2023-11-25T08:39:09.825Z,96778.12
2023-11-25T08:40:31.822Z,96777.94
2023-11-25T08:41:56.188Z,96780.38
2023-11-25T08:43:21.846Z,96782.28
2023-11-25T08:44:55.387Z,96780.75
2023-11-25T08:46:21.201Z,96781.29
2023-11-25T08:47:50.838Z,96780.16
2023-11-25T08:49:16.175Z,96786.11
2023-11-25T08:50:40.753Z,96784.73
2023-11-25T08:52:14.177Z,96788.08
2023-11-25T08:53:38.669Z,96792.25
2023-11-25T08:55:14.437Z,96787.90
2023-11-25T08:56:38.893Z,96785.89
2023-11-25T08:58:00.647Z,96788.65
2023-11-25T08:59:25.359Z,96790.09
2023-11-25T09:00:50.597Z,96794.89
2023-11-25T09:02:14.224Z,96795.04
2023-11-25T09:03:40.684Z,96793.30
2023-11-25T09:05:09.285Z,96793.02
2023-11-25T09:06:47.458Z,96797.71
2023-11-25T09:08:22.976Z,96804.36
2023-11-25T09:09:53.084Z,96802.61
2023-11-25T09:11:14.566Z,96804.74
2023-11-25T09:12:48.270Z,96806.72
2023-11-25T09:14:21.825Z,96812.14
2023-11-25T09:15:46.263Z,96812.40
2023-11-25T09:17:20.731Z,96813.20
2023-11-25T09:19:01.700Z,96815.85
2023-11-25T09:20:31.454Z,96816.45
2023-11-25T09:22:00.077Z,96813.16
2023-11-25T09:23:22.823Z,96811.98
2023-11-25T09:24:45.409Z,96815.60
2023-11-25T09:26:22.651Z,96819.70
2023-11-25T09:27:47.030Z,96819.15
2023-11-25T09:29:08.740Z,96819.44
2023-11-25T09:30:35.895Z,96816.92
2023-11-25T09:31:58.799Z,96827.52
2023-11-25T09:33:20.875Z,96824.47
2023-11-25T09:34:43.136Z,96829.88
2023-11-25T09:36:05.120Z,96826.77
2023-11-25T09:37:27.317Z,96824.84
2023-11-25T09:38:56.259Z,96824.48
2023-11-25T09:40:32.544Z,96823.27
2023-11-25T09:41:54.826Z,96819.22
2023-11-25T09:43:21.794Z,96819.17
2023-11-25T09:44:44.215Z,96809.64
2023-11-25T09:46:08.807Z,96821.92
2023-11-25T09:47:35.519Z,96815.56
2023-11-25T09:48:59.177Z,96820.65
2023-11-25T09:50:22.656Z,96820.52
2023-11-25T09:51:44.847Z,96820.14
2023-11-25T09:53:13.924Z,96824.05
2023-11-25T09:54:36.764Z,96820.41
2023-11-25T09:55:59.385Z,96823.67
2023-11-25T09:57:33.831Z,96827.24
2023-11-25T09:59:12.325Z,96827.45
2023-11-25T10:00:42.796Z,96825.01
2023-11-25T10:02:04.559Z,96829.11
2023-11-25T10:03:27.463Z,96828.52
2023-11-25T10:04:49.221Z,96829.69
2023-11-25T10:06:13.308Z,96828.75
2023-11-25T10:07:38.269Z,96829.98
2023-11-25T10:09:11.033Z,96834.53
2023-11-25T10:10:35.352Z,96827.90
2023-11-25T10:11:57.786Z,96827.28
2023-11-25T10:13:19.923Z,96819.54
2023-11-25T10:14:41.914Z,96829.26
2023-11-25T10:16:15.200Z,96829.67
2023-11-25T10:17:49.591Z,96822.98
2023-11-25T10:19:21.783Z,96833.25
2023-11-25T10:20:44.153Z,96835.50
2023-11-25T10:22:17.651Z,96840.04
2023-11-25T10:23:42.208Z,96841.16
2023-11-25T10:25:11.848Z,96843.71
2023-11-25T10:26:36.861Z,96837.11
2023-11-25T10:28:03.409Z,96840.61
2023-11-25T10:29:33.211Z,96844.17
2023-11-25T10:30:57.613Z,96843.59
2023-11-25T10:32:21.861Z,96852.71
2023-11-25T10:33:46.390Z,96852.98
2023-11-25T10:35:20.310Z,96857.38
2023-11-25T10:36:53.898Z,96852.96
2023-11-25T10:38:31.035Z,96855.31
2023-11-25T10:39:55.273Z,96853.92
2023-11-25T10:41:25.037Z,96850.56
2023-11-25T10:42:49.342Z,96855.95
2023-11-25T10:44:11.071Z,96861.01
2023-11-25T10:45:35.860Z,96845.86
2023-11-25T10:46:59.218Z,96862.51
2023-11-25T10:48:21.170Z,96861.75
2023-11-25T10:49:52.103Z,96863.58
2023-11-25T10:51:16.225Z,96869.54
2023-11-25T10:52:40.089Z,96864.50
2023-11-25T10:54:02.117Z,96858.78
2023-11-25T10:55:27.074Z,96865.14
2023-11-25T10:57:00.963Z,96868.14
2023-11-25T10:58:33.324Z,96868.58
2023-11-25T10:59:55.493Z,96870.48
2023-11-25T11:01:17.553Z,96867.73
2023-11-25T11:02:51.356Z,96857.48
2023-11-25T11:04:22.957Z,96871.08
2023-11-25T11:06:09.772Z,96872.65
2023-11-25T11:07:34.751Z,96871.58
2023-11-25T11:08:56.562Z,96872.70
2023-11-25T11:10:28.863Z,96871.35
2023-11-25T11:11:58.257Z,96874.64
2023-11-25T11:13:20.228Z,96870.42
2023-11-25T11:14:49.937Z,96870.27
2023-11-25T11:16:13.971Z,96875.30
2023-11-25T11:17:50.361Z,96873.52
2023-11-25T11:19:14.991Z,96877.95
2023-11-25T11:20:37.350Z,96877.52
2023-11-25T11:21:59.021Z,96881.09
2023-11-25T11:23:30.550Z,96879.31
2023-11-25T11:24:59.737Z,96884.15
2023-11-25T11:26:29.215Z,96881.59
2023-11-25T11:28:02.585Z,96885.34
2023-11-25T11:29:29.810Z,96883.45
2023-11-25T11:30:56.155Z,96879.24
2023-11-25T11:32:30.951Z,96880.20
2023-11-25T11:33:52.764Z,96877.58
2023-11-25T11:35:14.264Z,96879.75
2023-11-25T11:36:38.454Z,96876.59
2023-11-25T11:38:02.670Z,96881.89
2023-11-25T11:39:24.720Z,96880.19
2023-11-25T11:40:58.584Z,96881.67
2023-11-25T11:42:20.510Z,96882.77
2023-11-25T11:43:43.090Z,96880.02
2023-11-25T11:45:12.921Z,96888.96
2023-11-25T11:46:39.800Z,96887.17
2023-11-25T11:48:05.167Z,96885.11
2023-11-25T11:49:27.435Z,96888.21
2023-11-25T11:50:56.861Z,96887.63
2023-11-25T11:52:26.194Z,96889.05
2023-11-25T11:53:48.191Z,96889.27
2023-11-25T11:55:12.289Z,96887.58
2023-11-25T11:56:34.688Z,96881.71
2023-11-25T11:58:08.195Z,96887.05
2023-11-25T11:59:30.712Z,96883.99
2023-11-25T12:00:54.992Z,96885.20
2023-11-25T12:02:28.480Z,96884.42
2023-11-25T12:03:53.031Z,96883.39
2023-11-25T12:05:20.552Z,96888.54
2023-11-25T12:06:42.873Z,96887.75
2023-11-25T12:08:06.890Z,96887.98
2023-11-25T12:09:41.378Z,96877.45
2023-11-25T12:11:06.898Z,96879.60
2023-11-25T12:12:29.480Z,96878.64
2023-11-25T12:13:53.459Z,96873.54
2023-11-25T12:15:16.701Z,96866.00
2023-11-25T12:16:39.070Z,96868.03
2023-11-25T12:18:01.716Z,96870.32
2023-11-25T12:19:35.905Z,96863.55
2023-11-25T12:21:11.442Z,96866.46
2023-11-25T12:22:36.619Z,96869.19
2023-11-25T12:24:00.657Z,96834.74
2023-11-25T12:25:22.524Z,96866.45
2023-11-25T12:26:46.954Z,96860.20
2023-11-25T12:28:18.653Z,96863.42
2023-11-25T12:29:41.086Z,96864.91
2023-11-25T12:31:04.844Z,96861.79
2023-11-25T12:32:34.786Z,96865.00
2023-11-25T12:34:13.175Z,96868.05
2023-11-25T12:35:47.338Z,96866.90
2023-11-25T12:37:20.662Z,96868.23
2023-11-25T12:38:43.398Z,96867.28
2023-11-25T12:40:05.985Z,96874.30
2023-11-25T12:41:45.398Z,96875.05
2023-11-25T12:43:07.345Z,96870.12
2023-11-25T12:44:44.597Z,96878.03
2023-11-25T12:46:20.952Z,96878.11
2023-11-25T12:47:56.722Z,96878.42
2023-11-25T12:49:18.643Z,96875.91
2023-11-25T12:50:46.122Z,96873.59
2023-11-25T12:52:19.597Z,96878.04
2023-11-25T12:53:55.629Z,96874.16
2023-11-25T12:55:28.901Z,96878.80
2023-11-25T12:57:00.519Z,96884.08
2023-11-25T12:58:25.078Z,96881.71
2023-11-25T12:59:57.189Z,96880.30
2023-11-25T13:01:19.134Z,96882.04
2023-11-25T13:02:46.327Z,96880.44
2023-11-25T13:04:19.693Z,96884.48
2023-11-25T13:05:54.005Z,96882.94
2023-11-25T13:07:18.411Z,96887.95
2023-11-25T13:08:54.688Z,96890.09
2023-11-25T13:10:28.389Z,96887.81
2023-11-25T13:11:50.723Z,96890.91
2023-11-25T13:13:24.306Z,96886.70
2023-11-25T13:14:50.789Z,96887.22
2023-11-25T13:16:14.087Z,96886.45
2023-11-25T13:17:37.271Z,96881.11
2023-11-25T13:19:03.989Z,96888.16
2023-11-25T13:20:29.284Z,96883.84
2023-11-25T13:21:54.060Z,96879.80
2023-11-25T13:23:18.279Z,96889.23
2023-11-25T13:24:40.658Z,96884.46
2023-11-25T13:26:09.892Z,96887.89
2023-11-25T13:27:32.055Z,96887.95
2023-11-25T13:28:53.965Z,96890.39
2023-11-25T13:30:23.129Z,96890.08
2023-11-25T13:31:48.156Z,96890.79
2023-11-25T13:33:09.986Z,96888.73
2023-11-25T13:34:32.287Z,96894.92
2023-11-25T13:35:55.885Z,96893.15
2023-11-25T13:37:25.263Z,96898.74
2023-11-25T13:38:47.212Z,96901.27
2023-11-25T13:40:13.401Z,96902.08
2023-11-25T13:41:49.564Z,96903.30
2023-11-25T13:43:11.384Z,96904.73
2023-11-25T13:44:33.363Z,96903.73
2023-11-25T13:45:55.694Z,96913.98
2023-11-25T13:47:19.836Z,96908.74
2023-11-25T13:48:42.447Z,96912.00
2023-11-25T13:50:04.966Z,96913.50
2023-11-25T13:51:27.073Z,96922.84
2023-11-25T13:52:48.850Z,96915.77
2023-11-25T13:54:10.875Z,96909.77
2023-11-25T13:55:37.713Z,96916.77
2023-11-25T13:57:01.798Z,96915.05
2023-11-25T13:58:23.799Z,96910.01
2023-11-25T13:59:46.211Z,96904.29
2023-11-25T14:01:22.253Z,96922.84
2023-11-25T14:02:44.856Z,96924.25
2023-11-25T14:04:13.974Z,96927.16
2023-11-25T14:05:43.011Z,96931.80
2023-11-25T14:07:04.954Z,96926.88
2023-11-25T14:08:29.864Z,96933.35
2023-11-25T14:09:51.880Z,96925.05
2023-11-25T14:11:14.582Z,96931.24
2023-11-25T14:12:37.325Z,96922.48
2023-11-25T14:14:01.663Z,96926.10
2023-11-25T14:15:39.139Z,96924.90
2023-11-25T14:17:00.871Z,96930.66
2023-11-25T14:18:27.682Z,96933.67
2023-11-25T14:19:50.361Z,96933.45
2023-11-25T14:21:12.006Z,96926.64
2023-11-25T14:22:34.948Z,96932.35
2023-11-25T14:23:59.134Z,96929.52
2023-11-25T14:25:26.045Z,96929.69
2023-11-25T14:26:47.769Z,96931.84
2023-11-25T14:28:09.547Z,96935.13
2023-11-25T14:29:45.916Z,96931.42
2023-11-25T14:31:17.260Z,96935.02
2023-11-25T14:32:50.012Z,96936.17
2023-11-25T14:34:19.035Z,96937.17
2023-11-25T14:35:30.226Z,96937.19
2023-11-25T14:36:59.423Z,96936.26
2023-11-25T14:38:23.682Z,96936.39
2023-11-25T14:39:51.405Z,96931.73
2023-11-25T14:41:20.426Z,96934.71
2023-11-25T14:42:43.058Z,96937.13
2023-11-25T14:44:05.360Z,96934.48
2023-11-25T14:45:29.900Z,96935.81
2023-11-25T14:46:51.710Z,96933.82
2023-11-25T14:48:14.458Z,96940.33
2023-11-25T14:49:37.078Z,96938.90
2023-11-25T14:51:01.274Z,96940.70
2023-11-25T14:52:23.015Z,96933.02
2023-11-25T14:53:47.253Z,96944.24
2023-11-25T14:55:12.801Z,96954.98
2023-11-25T14:56:35.099Z,96953.55
2023-11-25T14:57:57.580Z,96957.00
2023-11-25T14:59:27.724Z,96952.48
2023-11-25T15:00:49.179Z,96957.17
2023-11-25T15:02:11.132Z,96958.01
2023-11-25T15:03:44.248Z,96954.97
2023-11-25T15:05:13.549Z,96957.40
2023-11-25T15:06:43.343Z,96954.27
2023-11-25T15:08:05.366Z,96960.33
2023-11-25T15:09:30.665Z,96957.32
2023-11-25T15:10:52.880Z,96956.02
2023-11-25T15:12:14.519Z,96956.39
2023-11-25T15:13:36.985Z,96956.25
2023-11-25T15:14:59.562Z,96963.36
2023-11-25T15:16:23.860Z,96970.10
2023-11-25T15:17:48.787Z,96967.81
2023-11-25T15:19:12.742Z,96967.32
2023-11-25T15:20:37.259Z,96964.16
2023-11-25T15:22:10.812Z,96972.91
2023-11-25T15:23:45.304Z,96974.48
2023-11-25T15:25:09.568Z,96971.89
2023-11-25T15:26:39.185Z,96967.97
2023-11-25T15:28:02.556Z,96969.45
2023-11-25T15:29:27.128Z,96966.27
2023-11-25T15:30:50.889Z,96968.02
2023-11-25T15:32:12.741Z,96972.95
2023-11-25T15:33:35.048Z,96975.42
2023-11-25T15:35:20.186Z,96974.76
2023-11-25T15:36:51.698Z,96979.60
2023-11-25T15:38:22.655Z,96980.45
2023-11-25T15:39:46.419Z,96980.09
2023-11-25T15:41:13.983Z,96982.89
2023-11-25T15:42:48.582Z,96981.33
2023-11-25T15:44:30.131Z,96986.48
2023-11-25T15:45:52.323Z,96983.14
2023-11-25T15:47:16.610Z,96982.09
2023-11-25T15:48:57.971Z,96977.36
2023-11-25T15:50:31.978Z,96973.20
2023-11-25T15:51:56.017Z,96979.21
2023-11-25T15:53:20.040Z,96986.79
2023-11-25T15:55:07.555Z,96987.80
2023-11-25T15:56:41.767Z,96984.98
2023-11-25T15:58:06.324Z,96986.54
2023-11-25T15:59:42.783Z,96990.21
2023-11-25T16:01:16.013Z,96990.17
2023-11-25T16:02:38.335Z,96987.02
2023-11-25T16:04:02.454Z,96989.35
2023-11-25T16:05:44.164Z,96993.55
2023-11-25T16:07:19.403Z,96996.75
2023-11-25T16:08:53.210Z,96997.98
2023-11-25T16:10:26.878Z,97005.40
2023-11-25T16:11:48.938Z,96998.91
2023-11-25T16:13:10.495Z,96999.93
2023-11-25T16:14:43.289Z,97002.11
2023-11-25T16:16:05.412Z,97004.29
2023-11-25T16:17:39.668Z,96999.14
2023-11-25T16:19:01.586Z,97008.70
2023-11-25T16:20:23.214Z,97004.70
2023-11-25T16:21:48.018Z,97013.11
2023-11-25T16:23:12.081Z,97010.04
2023-11-25T16:24:40.158Z,97009.33
2023-11-25T16:26:04.390Z,97006.14
2023-11-25T16:27:29.682Z,96999.06
2023-11-25T16:28:51.389Z,97007.33
2023-11-25T16:30:16.086Z,97001.04
2023-11-25T16:31:38.436Z,97007.36
2023-11-25T16:33:07.896Z,97006.91
2023-11-25T16:34:30.135Z,97003.46
2023-11-25T16:35:57.029Z,97006.41
2023-11-25T16:37:18.522Z,97000.42
2023-11-25T16:38:43.070Z,97005.91
2023-11-25T16:40:06.756Z,97006.96
2023-11-25T16:41:29.867Z,97004.13
2023-11-25T16:42:51.217Z,97009.46
2023-11-25T16:44:17.998Z,97012.20
2023-11-25T16:45:49.282Z,97013.19
2023-11-25T16:47:10.790Z,97008.30
2023-11-25T16:48:48.754Z,97015.81
2023-11-25T16:50:27.590Z,96992.77
2023-11-25T16:51:58.936Z,97019.94
2023-11-25T16:53:32.548Z,97021.14
2023-11-25T16:54:57.383Z,97024.80
2023-11-25T16:56:20.924Z,97023.06
2023-11-25T16:57:45.043Z,97027.77